Terminal Aerodrome Forecast
Issued by NWS

Home | Current Version | Previous Version | Text Only | Print | Product List | Glossary On
Versions: 1 2 3 4 5 6 7 8 9 10 11 12 13
000
FTUS42 KFFC 222341
TAFPDK
TAF
KPDK 222341Z 2300/2324 07006KT P6SM BKN045
     FM230300 10008KT P6SM BKN025
     FM230800 08008KT 5SM -RA BR OVC008
     FM231400 07009KT 2SM SHRA BR OVC006 PROB30 2317/2321 2SM TSRA
      OVC015CB
     FM232300 15009KT 4SM BR OVC009=

USA.gov is the U.S. government's official web portal to all federal, state and local government web resources and services.